createdAt,value
2018-07-01T00:00:48.552Z,2.07
2018-07-01T00:03:16.785Z,2.47
2018-07-01T00:05:44.998Z,2.37
2018-07-01T00:08:13.228Z,2.40
2018-07-01T00:10:41.461Z,2.50
2018-07-01T00:13:09.665Z,2.20
2018-07-01T00:15:37.863Z,2.80
2018-07-01T00:18:06.103Z,2.40
2018-07-01T00:20:34.317Z,2.50
2018-07-01T00:23:02.524Z,2.40
2018-07-01T00:25:30.726Z,2.27
2018-07-01T00:27:58.923Z,2.77
2018-07-01T00:30:27.144Z,2.40
2018-07-01T00:32:55.085Z,2.57
2018-07-01T00:35:23.326Z,2.30
2018-07-01T00:37:51.544Z,1.60
2018-07-01T00:40:19.762Z,2.57
2018-07-01T00:42:47.963Z,2.20
2018-07-01T00:45:16.162Z,2.20
2018-07-01T00:47:44.366Z,1.90
2018-07-01T00:50:12.318Z,2.30
2018-07-01T00:52:40.531Z,2.30
2018-07-01T00:55:08.759Z,1.93
2018-07-01T00:57:36.977Z,2.00
2018-07-01T01:00:05.241Z,2.67
2018-07-01T01:02:33.162Z,2.33
2018-07-01T01:05:01.319Z,2.47
2018-07-01T01:07:29.465Z,2.40
2018-07-01T01:09:57.648Z,2.60
2018-07-01T01:12:25.932Z,2.20
2018-07-01T01:14:54.070Z,2.13
2018-07-01T01:17:22.236Z,2.30
2018-07-01T01:19:50.380Z,2.20
2018-07-01T01:22:18.571Z,2.90
2018-07-01T01:24:46.727Z,2.20
2018-07-01T01:27:14.893Z,2.30
2018-07-01T01:29:43.062Z,2.40
2018-07-01T01:32:11.227Z,2.40
2018-07-01T01:34:39.397Z,2.43
2018-07-01T01:37:07.558Z,2.13
2018-07-01T01:39:38.364Z,2.60
2018-07-01T01:42:13.728Z,1.90
2018-07-01T01:44:46.296Z,2.10
2018-07-01T01:47:21.892Z,2.23
2018-07-01T01:49:56.438Z,1.83
2018-07-01T01:52:30.058Z,1.80
2018-07-01T01:55:03.631Z,2.20
2018-07-01T01:57:35.807Z,2.40
2018-07-01T02:00:10.280Z,2.37
2018-07-01T02:02:49.080Z,2.20
2018-07-01T02:05:26.240Z,2.30
2018-07-01T02:07:57.297Z,2.10
2018-07-01T02:10:25.241Z,2.00
2018-07-01T02:12:53.438Z,1.90
2018-07-01T02:15:26.967Z,2.30
2018-07-01T02:17:56.218Z,2.30
2018-07-01T02:20:28.295Z,2.10
2018-07-01T02:23:01.887Z,1.80
2018-07-01T02:25:31.919Z,2.30
2018-07-01T02:28:00.090Z,1.90
2018-07-01T02:30:28.023Z,1.93
2018-07-01T02:32:56.174Z,2.20
2018-07-01T02:35:24.373Z,1.93
2018-07-01T02:37:52.491Z,2.13
2018-07-01T02:40:20.642Z,1.80
2018-07-01T02:42:48.810Z,1.70
2018-07-01T02:45:16.996Z,1.93
2018-07-01T02:47:44.961Z,2.00
2018-07-01T02:50:12.889Z,1.80
2018-07-01T02:52:41.041Z,1.97
2018-07-01T02:55:09.203Z,2.13
2018-07-01T02:57:37.466Z,1.50
2018-07-01T03:00:05.683Z,2.43
2018-07-01T03:02:33.840Z,1.90
2018-07-01T03:05:01.980Z,1.90
2018-07-01T03:07:30.127Z,1.80
2018-07-01T03:09:58.268Z,2.20
2018-07-01T03:12:26.452Z,1.77
2018-07-01T03:14:54.596Z,2.20
2018-07-01T03:17:22.744Z,1.90
2018-07-01T03:19:50.920Z,2.00
2018-07-01T03:22:19.183Z,2.00
2018-07-01T03:24:47.098Z,2.43
2018-07-01T03:27:15.287Z,1.90
2018-07-01T03:29:43.455Z,1.93
2018-07-01T03:32:11.607Z,1.97
2018-07-01T03:34:39.767Z,1.83
2018-07-01T03:37:07.936Z,2.47
2018-07-01T03:39:36.098Z,2.30
2018-07-01T03:42:04.032Z,2.20
2018-07-01T03:44:32.203Z,2.10
2018-07-01T03:47:00.353Z,1.80
2018-07-01T03:49:28.508Z,1.93
2018-07-01T03:51:56.765Z,1.90
2018-07-01T03:54:24.954Z,1.90
2018-07-01T03:56:53.106Z,1.87
2018-07-01T03:59:21.498Z,2.03
2018-07-01T04:01:49.712Z,1.90
2018-07-01T04:04:17.974Z,2.00
2018-07-01T04:06:46.173Z,1.90
2018-07-01T04:09:14.495Z,1.70
2018-07-01T04:11:42.729Z,1.87
2018-07-01T04:14:10.948Z,2.10
2018-07-01T04:16:39.602Z,1.80
2018-07-01T04:19:07.814Z,1.77
2018-07-01T04:21:36.021Z,2.13
2018-07-01T04:24:04.273Z,1.60
2018-07-01T04:26:32.531Z,2.47
2018-07-01T04:29:00.477Z,1.70
2018-07-01T04:31:28.850Z,2.20
2018-07-01T04:33:57.070Z,2.17
2018-07-01T04:36:25.282Z,1.87
2018-07-01T04:38:53.513Z,2.43
2018-07-01T04:41:21.721Z,2.40
2018-07-01T04:43:49.935Z,2.00
2018-07-01T04:46:18.130Z,2.00
2018-07-01T04:48:46.363Z,1.87
2018-07-01T04:51:14.580Z,2.00
2018-07-01T04:53:42.803Z,1.70
2018-07-01T04:56:11.026Z,1.97
2018-07-01T04:58:39.226Z,1.73
2018-07-01T05:01:07.626Z,1.63
2018-07-01T05:03:35.835Z,1.67
2018-07-01T05:06:04.050Z,2.43
2018-07-01T05:08:32.606Z,2.00
2018-07-01T05:11:00.811Z,2.30
2018-07-01T05:13:29.032Z,1.90
2018-07-01T05:15:57.229Z,1.93
2018-07-01T05:18:25.431Z,2.50
2018-07-01T05:20:53.655Z,1.93
2018-07-01T05:23:21.876Z,1.93
2018-07-01T05:25:50.101Z,1.80
2018-07-01T05:28:18.302Z,2.03
2018-07-01T05:30:46.501Z,1.97
2018-07-01T05:33:14.726Z,2.07
2018-07-01T05:35:42.935Z,2.20
2018-07-01T05:38:11.140Z,2.40
2018-07-01T05:40:39.358Z,2.50
2018-07-01T05:43:07.548Z,1.53
2018-07-01T05:45:35.891Z,2.17
2018-07-01T05:48:04.122Z,2.87
2018-07-01T05:50:32.334Z,1.93
2018-07-01T05:53:00.550Z,2.33
2018-07-01T05:55:28.827Z,2.40
2018-07-01T05:57:57.064Z,2.30
2018-07-01T06:00:25.227Z,2.40
2018-07-01T06:02:53.378Z,2.50
2018-07-01T06:05:21.519Z,1.60
2018-07-01T06:07:49.683Z,2.00
2018-07-01T06:10:17.596Z,1.87
2018-07-01T06:12:45.778Z,2.40
2018-07-01T06:15:13.938Z,2.00
2018-07-01T06:17:42.109Z,2.30
2018-07-01T06:20:10.552Z,2.20
2018-07-01T06:22:39.025Z,2.33
2018-07-01T06:25:07.189Z,2.30
2018-07-01T06:27:35.351Z,2.30
2018-07-01T06:30:03.570Z,2.20
2018-07-01T06:32:31.728Z,2.23
2018-07-01T06:34:59.886Z,2.63
2018-07-01T06:37:28.051Z,2.53
2018-07-01T06:39:56.239Z,2.43
2018-07-01T06:42:24.453Z,2.30
2018-07-01T06:44:52.642Z,2.70
2018-07-01T06:47:21.084Z,2.20
2018-07-01T06:49:49.245Z,2.80
2018-07-01T06:52:17.501Z,2.80
2018-07-01T06:54:45.675Z,3.00
2018-07-01T06:57:13.834Z,2.83
2018-07-01T06:59:42.165Z,2.87
2018-07-01T07:02:10.369Z,2.60
2018-07-01T07:04:38.622Z,2.93
2018-07-01T07:07:06.844Z,2.97
2018-07-01T07:09:35.046Z,3.80
2018-07-01T07:12:02.974Z,3.63
2018-07-01T07:14:31.434Z,2.47
2018-07-01T07:16:59.900Z,2.23
2018-07-01T07:19:28.336Z,2.80
2018-07-01T07:21:56.454Z,1.90
2018-07-01T07:24:24.979Z,2.30
2018-07-01T07:26:53.489Z,2.20
2018-07-01T07:29:21.925Z,2.43
2018-07-01T07:31:50.469Z,2.30
2018-07-01T07:34:18.889Z,2.70
2018-07-01T07:36:47.331Z,2.30
2018-07-01T07:39:15.819Z,1.87
2018-07-01T07:41:44.312Z,1.87
2018-07-01T07:44:12.843Z,1.83
2018-07-01T07:46:41.237Z,2.00
2018-07-01T07:49:09.692Z,2.10
2018-07-01T07:51:38.159Z,2.20
2018-07-01T07:54:06.622Z,1.93
2018-07-01T07:56:35.115Z,1.97
2018-07-01T07:59:03.620Z,1.90
2018-07-01T08:01:32.137Z,2.20
2018-07-01T08:04:00.606Z,1.90
2018-07-01T08:06:29.055Z,2.23
2018-07-01T08:08:57.501Z,2.03
2018-07-01T08:11:25.960Z,2.03
2018-07-01T08:13:54.461Z,1.83
2018-07-01T08:16:22.967Z,1.97
2018-07-01T08:18:51.478Z,2.07
2018-07-01T08:21:19.969Z,1.83
2018-07-01T08:23:48.519Z,1.70
2018-07-01T08:26:17.035Z,2.00
2018-07-01T08:28:45.582Z,1.90
2018-07-01T08:31:14.024Z,1.57
2018-07-01T08:33:42.439Z,1.50
2018-07-01T08:36:10.911Z,1.60
2018-07-01T08:38:39.353Z,2.00
2018-07-01T08:41:07.804Z,1.90
2018-07-01T08:43:36.260Z,1.83
2018-07-01T08:46:04.701Z,1.70
2018-07-01T08:48:33.143Z,2.70
2018-07-01T08:51:01.578Z,1.53
2018-07-01T08:53:30.064Z,1.80
2018-07-01T08:55:58.673Z,1.50
2018-07-01T08:58:27.119Z,1.67
2018-07-01T09:00:55.605Z,1.53
2018-07-01T09:03:24.057Z,1.97
2018-07-01T09:05:52.487Z,2.53
2018-07-01T09:08:20.944Z,1.90
2018-07-01T09:10:49.396Z,1.50
2018-07-01T09:13:17.836Z,1.83
2018-07-01T09:15:46.298Z,1.80
2018-07-01T09:18:14.782Z,1.70
2018-07-01T09:20:43.278Z,1.47
2018-07-01T09:23:11.420Z,1.80
2018-07-01T09:25:39.844Z,1.97
2018-07-01T09:28:08.357Z,2.03
2018-07-01T09:30:36.756Z,1.80
2018-07-01T09:33:05.303Z,1.53
2018-07-01T09:35:33.729Z,1.60
2018-07-01T09:38:02.167Z,1.53
2018-07-01T09:40:30.678Z,2.07
2018-07-01T09:42:59.110Z,1.73
2018-07-01T09:45:27.266Z,1.40
2018-07-01T09:47:55.800Z,1.27
2018-07-01T09:50:24.341Z,1.50
2018-07-01T09:52:52.764Z,1.50
2018-07-01T09:55:21.265Z,1.70
2018-07-01T09:57:49.706Z,1.60
2018-07-01T10:00:18.181Z,1.60
2018-07-01T10:02:46.627Z,1.13
2018-07-01T10:05:15.082Z,2.13
2018-07-01T10:07:43.574Z,1.50
2018-07-01T10:10:12.036Z,1.50
2018-07-01T10:12:40.909Z,1.47
2018-07-01T10:15:09.330Z,1.50
2018-07-01T10:17:37.832Z,1.37
2018-07-01T10:20:06.338Z,1.30
2018-07-01T10:22:34.901Z,1.07
2018-07-01T10:25:03.349Z,1.10
2018-07-01T10:27:31.781Z,1.20
2018-07-01T10:30:00.282Z,1.13
2018-07-01T10:32:28.823Z,1.40
2018-07-01T10:34:57.280Z,0.90
2018-07-01T10:37:25.453Z,1.10
2018-07-01T10:39:53.916Z,1.30
2018-07-01T10:42:22.410Z,1.20
2018-07-01T10:44:50.886Z,1.20
2018-07-01T10:47:19.372Z,1.10
2018-07-01T10:49:47.862Z,1.43
2018-07-01T10:52:16.481Z,1.17
2018-07-01T10:54:44.937Z,1.20
2018-07-01T10:57:13.399Z,1.20
2018-07-01T10:59:41.770Z,1.20
2018-07-01T11:02:10.166Z,1.20
2018-07-01T11:04:38.287Z,1.40
2018-07-01T11:07:06.647Z,1.30
2018-07-01T11:09:35.069Z,1.20
2018-07-01T11:12:03.472Z,1.20
2018-07-01T11:14:31.579Z,1.40
2018-07-01T11:16:59.986Z,1.90
2018-07-01T11:19:28.391Z,1.57
2018-07-01T11:21:56.755Z,1.33
2018-07-01T11:24:25.246Z,1.90
2018-07-01T11:26:53.802Z,1.70
2018-07-01T11:29:22.143Z,1.30
2018-07-01T11:31:50.500Z,1.30
2018-07-01T11:34:18.628Z,1.10
2018-07-01T11:36:46.975Z,1.37
2018-07-01T11:39:15.345Z,1.37
2018-07-01T11:41:43.701Z,1.23
2018-07-01T11:44:12.094Z,1.37
2018-07-01T11:46:40.483Z,1.10
2018-07-01T11:49:08.558Z,1.40
2018-07-01T11:51:36.987Z,1.00
2018-07-01T11:54:05.591Z,1.20
2018-07-01T11:56:34.036Z,1.77
2018-07-01T11:59:02.580Z,1.40
2018-07-01T12:01:30.944Z,1.70
2018-07-01T12:03:59.336Z,1.30
2018-07-01T12:06:27.729Z,1.37
2018-07-01T12:08:56.093Z,1.10
2018-07-01T12:11:24.510Z,1.50
2018-07-01T12:13:52.902Z,1.27
2018-07-01T12:16:21.228Z,1.23
2018-07-01T12:18:49.575Z,1.20
2018-07-01T12:21:17.921Z,1.40
2018-07-01T12:23:46.284Z,1.17
2018-07-01T12:26:14.703Z,1.10
2018-07-01T12:28:43.103Z,1.40
2018-07-01T12:31:11.483Z,1.20
2018-07-01T12:33:39.817Z,1.20
2018-07-01T12:36:08.191Z,1.20
2018-07-01T12:38:36.557Z,1.23
2018-07-01T12:41:04.987Z,1.37
2018-07-01T12:43:33.371Z,1.50
2018-07-01T12:46:01.903Z,1.40
2018-07-01T12:48:30.315Z,1.47
2018-07-01T12:50:58.721Z,1.70
2018-07-01T12:53:27.150Z,1.13
2018-07-01T12:55:55.529Z,1.47
2018-07-01T12:58:23.871Z,1.10
2018-07-01T13:00:52.235Z,1.30
2018-07-01T13:03:20.828Z,1.30
2018-07-01T13:05:49.217Z,1.50
2018-07-01T13:08:17.585Z,1.57
2018-07-01T13:10:46.039Z,1.43
2018-07-01T13:13:14.440Z,1.63
2018-07-01T13:15:42.813Z,1.40
2018-07-01T13:18:11.142Z,1.47
2018-07-01T13:20:39.511Z,1.47
2018-07-01T13:23:07.867Z,1.37
2018-07-01T13:25:36.302Z,1.37
2018-07-01T13:28:04.701Z,1.30
2018-07-01T13:30:33.152Z,1.47
2018-07-01T13:33:01.579Z,1.50
2018-07-01T13:35:29.958Z,1.83
2018-07-01T13:37:58.304Z,1.43
2018-07-01T13:40:26.404Z,1.50
2018-07-01T13:42:54.831Z,1.70
2018-07-01T13:45:23.184Z,1.37
2018-07-01T13:47:51.622Z,1.60
2018-07-01T13:50:20.056Z,1.70
2018-07-01T13:52:48.431Z,1.67
2018-07-01T13:55:16.741Z,1.60
2018-07-01T13:57:45.133Z,1.50
2018-07-01T14:00:13.518Z,1.43
2018-07-01T14:02:41.909Z,1.40
2018-07-01T14:05:10.311Z,1.60
2018-07-01T14:07:38.672Z,1.30
2018-07-01T14:10:07.088Z,1.47
2018-07-01T14:12:35.600Z,2.27
2018-07-01T14:15:04.269Z,1.97
2018-07-01T14:17:32.747Z,1.70
2018-07-01T14:20:01.006Z,1.83
2018-07-01T14:22:29.380Z,1.10
2018-07-01T14:24:57.842Z,1.33
2018-07-01T14:27:26.224Z,1.70
2018-07-01T14:29:54.570Z,1.80
2018-07-01T14:32:22.955Z,2.10
2018-07-01T14:34:51.036Z,1.97
2018-07-01T14:37:19.401Z,1.40
2018-07-01T14:39:47.708Z,1.43
2018-07-01T14:42:16.255Z,1.83
2018-07-01T14:44:44.771Z,1.73
2018-07-01T14:47:13.153Z,1.43
2018-07-01T14:49:41.549Z,1.50
2018-07-01T14:52:09.941Z,1.60
2018-07-01T14:54:38.371Z,1.53
2018-07-01T14:57:06.739Z,1.70
2018-07-01T14:59:35.093Z,1.73
2018-07-01T15:02:03.505Z,1.37
2018-07-01T15:04:31.926Z,1.50
2018-07-01T15:07:00.363Z,1.40
2018-07-01T15:09:28.784Z,1.37
2018-07-01T15:11:57.134Z,1.40
2018-07-01T15:14:25.523Z,1.77
2018-07-01T15:16:53.875Z,1.83
2018-07-01T15:19:22.234Z,1.70
2018-07-01T15:21:50.664Z,1.63
2018-07-01T15:24:19.028Z,1.77
2018-07-01T15:26:47.518Z,1.47
2018-07-01T15:29:15.939Z,1.30
2018-07-01T15:31:44.297Z,1.50
2018-07-01T15:34:12.646Z,1.50
2018-07-01T15:36:41.088Z,1.80
2018-07-01T15:39:10.516Z,1.57
2018-07-01T15:41:39.036Z,1.80
2018-07-01T15:44:07.444Z,1.60
2018-07-01T15:46:35.668Z,1.70
2018-07-01T15:49:04.059Z,1.40
2018-07-01T15:51:32.506Z,1.57
2018-07-01T15:54:01.101Z,1.90
2018-07-01T15:56:29.646Z,1.70
2018-07-01T15:58:58.057Z,1.57
2018-07-01T16:01:26.420Z,1.80
2018-07-01T16:03:54.817Z,1.33
2018-07-01T16:06:23.232Z,1.47
2018-07-01T16:08:51.628Z,2.47
2018-07-01T16:11:20.096Z,1.17
2018-07-01T16:13:48.983Z,1.67
2018-07-01T16:16:17.471Z,1.10
2018-07-01T16:18:45.946Z,1.60
2018-07-01T16:21:14.385Z,1.60
2018-07-01T16:23:42.792Z,1.50
2018-07-01T16:26:16.549Z,2.27
2018-07-01T16:28:50.265Z,1.87
2018-07-01T16:31:18.702Z,1.87
2018-07-01T16:33:46.857Z,1.73
2018-07-01T16:36:15.252Z,1.70
2018-07-01T16:38:43.642Z,1.93
2018-07-01T16:41:12.052Z,1.77
2018-07-01T16:43:40.441Z,1.77
2018-07-01T16:46:08.781Z,1.67
2018-07-01T16:48:37.218Z,1.30
2018-07-01T16:51:05.609Z,1.33
2018-07-01T16:53:34.008Z,2.23
2018-07-01T16:56:02.380Z,1.83
2018-07-01T16:58:30.696Z,1.40
2018-07-01T17:00:59.172Z,1.90
2018-07-01T17:03:27.596Z,1.80
2018-07-01T17:05:56.149Z,1.63
2018-07-01T17:08:24.577Z,1.47
2018-07-01T17:10:52.948Z,1.63
2018-07-01T17:13:21.323Z,1.10
2018-07-01T17:15:49.707Z,1.57
2018-07-01T17:18:18.043Z,1.00
2018-07-01T17:20:46.570Z,1.67
2018-07-01T17:23:15.037Z,1.30
2018-07-01T17:25:48.996Z,1.03
2018-07-01T17:28:17.435Z,1.20
2018-07-01T17:30:45.820Z,1.47
2018-07-01T17:33:19.730Z,1.33
2018-07-01T17:35:48.116Z,2.20
2018-07-01T17:38:16.486Z,1.10
2018-07-01T17:40:44.859Z,1.60
2018-07-01T17:43:13.362Z,1.60
2018-07-01T17:45:41.451Z,1.87
2018-07-01T17:48:09.822Z,1.00
2018-07-01T17:50:37.869Z,1.23
2018-07-01T17:53:06.279Z,1.00
2018-07-01T17:55:34.691Z,1.00
2018-07-01T17:58:03.129Z,1.33
2018-07-01T18:00:31.570Z,1.30
2018-07-01T18:03:00.098Z,1.17
2018-07-01T18:05:28.609Z,1.20
2018-07-01T18:07:57.052Z,1.13
2018-07-01T18:10:25.511Z,1.07
2018-07-01T18:12:53.947Z,1.33
2018-07-01T18:15:22.430Z,1.50
2018-07-01T18:17:50.900Z,1.33
2018-07-01T18:20:19.347Z,1.03
2018-07-01T18:23:18.230Z,1.47
2018-07-01T18:25:16.290Z,1.00
2018-07-01T18:27:47.838Z,1.03
2018-07-01T18:30:13.104Z,1.40
2018-07-01T18:32:41.523Z,1.57
2018-07-01T18:35:10.041Z,1.37
2018-07-01T18:37:38.533Z,1.10
2018-07-01T18:40:06.979Z,1.17
2018-07-01T18:42:35.198Z,0.90
2018-07-01T18:45:03.374Z,1.43
2018-07-01T18:47:31.634Z,1.23
2018-07-01T18:49:59.834Z,1.40
2018-07-01T18:52:28.032Z,1.20
2018-07-01T18:54:56.241Z,1.50
2018-07-01T18:57:24.450Z,1.10
2018-07-01T18:59:52.657Z,1.30
2018-07-01T19:02:20.853Z,1.10
2018-07-01T19:04:49.058Z,1.00
2018-07-01T19:07:17.246Z,1.03
2018-07-01T19:09:45.444Z,1.23
2018-07-01T19:12:13.652Z,1.23
2018-07-01T19:14:41.868Z,0.97
2018-07-01T19:17:10.053Z,1.00
2018-07-01T19:19:38.301Z,1.23
2018-07-01T19:22:06.524Z,0.97
2018-07-01T19:24:34.725Z,1.03
2018-07-01T19:27:02.923Z,1.00
2018-07-01T19:29:31.131Z,0.83
2018-07-01T19:31:59.346Z,1.07
2018-07-01T19:34:27.556Z,1.10
2018-07-01T19:36:55.758Z,1.07
2018-07-01T19:39:24.004Z,1.00
2018-07-01T19:41:51.927Z,0.70
2018-07-01T19:44:20.514Z,1.30
2018-07-01T19:46:48.728Z,1.13
2018-07-01T19:49:16.687Z,0.80
2018-07-01T19:51:44.901Z,1.20
2018-07-01T19:54:13.097Z,1.10
2018-07-01T19:56:41.303Z,1.00
2018-07-01T19:59:09.237Z,1.07
2018-07-01T20:01:37.380Z,0.90
2018-07-01T20:04:05.587Z,1.20
2018-07-01T20:06:33.818Z,0.90
2018-07-01T20:09:02.954Z,1.10
2018-07-01T20:11:31.113Z,0.90
2018-07-01T20:13:59.264Z,1.50
2018-07-01T20:16:27.426Z,1.10
2018-07-01T20:18:55.587Z,1.10
2018-07-01T20:21:23.740Z,1.30
2018-07-01T20:23:52.163Z,1.10
2018-07-01T20:26:20.302Z,0.97
2018-07-01T20:28:48.444Z,1.27
2018-07-01T20:31:16.616Z,1.10
2018-07-01T20:33:44.777Z,1.20
2018-07-01T20:36:12.956Z,1.00
2018-07-01T20:38:41.106Z,0.90
2018-07-01T20:41:09.362Z,0.97
2018-07-01T20:43:37.707Z,1.00
2018-07-01T20:46:06.000Z,0.97
2018-07-01T20:48:34.301Z,1.07
2018-07-01T20:51:02.473Z,1.47
2018-07-01T20:53:30.655Z,1.00
2018-07-01T20:55:58.806Z,0.90
2018-07-01T20:58:26.950Z,1.10
2018-07-01T21:00:55.157Z,1.00
2018-07-01T21:03:23.342Z,1.47
2018-07-01T21:05:51.633Z,1.30
2018-07-01T21:08:19.749Z,1.07
2018-07-01T21:10:47.968Z,1.17
2018-07-01T21:13:16.171Z,1.00
2018-07-01T21:15:44.373Z,1.10
2018-07-01T21:18:12.668Z,1.00
2018-07-01T21:20:40.877Z,1.17
2018-07-01T21:23:09.094Z,1.03
2018-07-01T21:25:37.299Z,1.20
2018-07-01T21:28:05.249Z,1.23
2018-07-01T21:30:33.207Z,1.07
2018-07-01T21:33:01.399Z,1.00
2018-07-01T21:35:29.359Z,1.20
2018-07-01T21:37:57.558Z,1.17
2018-07-01T21:40:25.763Z,1.17
2018-07-01T21:42:54.028Z,0.80
2018-07-01T21:45:22.280Z,1.00
2018-07-01T21:47:50.486Z,1.63
2018-07-01T21:50:18.716Z,1.20
2018-07-01T21:52:46.910Z,1.17
2018-07-01T21:55:15.159Z,1.50
2018-07-01T21:57:43.341Z,1.40
2018-07-01T22:00:11.573Z,1.30
2018-07-01T22:02:39.792Z,1.50
2018-07-01T22:05:08.142Z,1.30
2018-07-01T22:07:36.367Z,1.07
2018-07-01T22:10:04.599Z,1.33
2018-07-01T22:12:44.237Z,1.60
2018-07-01T22:15:25.624Z,1.20
2018-07-01T22:17:55.057Z,1.00
2018-07-01T22:20:23.293Z,1.40
2018-07-01T22:22:51.492Z,1.33
2018-07-01T22:25:19.437Z,1.20
2018-07-01T22:27:47.668Z,0.90
2018-07-01T22:30:15.880Z,1.10
2018-07-01T22:32:44.097Z,1.40
2018-07-01T22:35:12.306Z,1.03
2018-07-01T22:37:40.507Z,1.10
2018-07-01T22:40:08.743Z,1.03
2018-07-01T22:42:36.948Z,1.20
2018-07-01T22:45:05.189Z,1.10
2018-07-01T22:47:33.395Z,1.00
2018-07-01T22:50:01.616Z,1.77
2018-07-01T22:52:29.814Z,1.20
2018-07-01T22:54:58.028Z,1.10
2018-07-01T22:57:26.254Z,1.20
2018-07-01T22:59:54.407Z,1.40
2018-07-01T23:03:00.254Z,1.40
2018-07-01T23:05:28.429Z,1.13
2018-07-01T23:07:56.611Z,1.30
2018-07-01T23:10:25.905Z,1.10
2018-07-01T23:12:54.718Z,1.30
2018-07-01T23:15:22.889Z,1.70
2018-07-01T23:17:51.076Z,1.20
2018-07-01T23:20:19.293Z,1.20
2018-07-01T23:22:47.447Z,1.60
2018-07-01T23:25:15.672Z,1.23
2018-07-01T23:27:44.753Z,1.30
2018-07-01T23:30:12.914Z,1.83
2018-07-01T23:32:41.910Z,1.20
2018-07-01T23:35:10.120Z,1.40
2018-07-01T23:37:38.794Z,1.33
2018-07-01T23:40:07.578Z,1.30
2018-07-01T23:42:35.865Z,1.33
2018-07-01T23:45:04.507Z,1.20
2018-07-01T23:47:32.661Z,1.50
2018-07-01T23:50:00.814Z,1.67
2018-07-01T23:52:28.966Z,1.60
2018-07-01T23:54:57.101Z,1.70
2018-07-01T23:57:25.269Z,1.50
2018-07-01T23:59:53.431Z,1.60
